Time;durP1;ratioP1;P1;durP2;ratioP2;P2;SDS_P1;SDS_P2;PMS_P1;PMS_P2;Temp;Humidity;BMP_temperature;BMP_pressure;BME280_temperature;BME280_humidity;BME280_pressure;Samples;Min_cycle;Max_cycle;Signal;HPM_P1;HPM_P2
2022/08/10 00:01:11;;;;;;;5.30;1.25;;;;;;;14.99;100.00;102911.78;5052478;28;20025;-72
2022/08/10 00:03:37;;;;;;;2.33;1.50;;;;;;;14.95;100.00;102913.00;5052544;28;20116;-72
2022/08/10 00:06:02;;;;;;;2.42;1.50;;;;;;;14.92;100.00;102915.91;5052339;28;20455;-71
2022/08/10 00:08:28;;;;;;;6.95;1.60;;;;;;;14.87;100.00;102907.38;5052259;28;20516;-72
2022/08/10 00:10:55;;;;;;;1.60;1.50;;;;;;;14.84;100.00;102915.66;5055370;28;20033;-72
2022/08/10 00:13:22;;;;;;;2.55;1.35;;;;;;;14.81;100.00;102913.22;5055796;28;20078;-72
2022/08/10 00:15:48;;;;;;;1.50;1.40;;;;;;;14.76;100.00;102913.56;5055823;28;20032;-72
2022/08/10 00:18:13;;;;;;;2.67;1.63;;;;;;;14.74;100.00;102915.47;5055857;28;20044;-73
2022/08/10 00:20:39;;;;;;;1.50;1.40;;;;;;;14.71;100.00;102909.50;5055917;28;20025;-72
2022/08/10 00:23:04;;;;;;;1.95;1.50;;;;;;;14.72;100.00;102903.16;5055851;28;20033;-72
2022/08/10 00:25:29;;;;;;;1.77;1.60;;;;;;;14.72;100.00;102909.41;5055292;28;20064;-72
2022/08/10 00:27:55;;;;;;;1.80;1.40;;;;;;;14.71;100.00;102898.78;5055494;28;20036;-72
2022/08/10 00:30:20;;;;;;;1.40;1.30;;;;;;;14.69;100.00;102906.94;5055379;28;20415;-72
2022/08/10 00:32:46;;;;;;;2.75;1.60;;;;;;;14.65;100.00;102899.25;5055321;28;20060;-72
2022/08/10 00:35:11;;;;;;;1.95;1.40;;;;;;;14.59;100.00;102900.53;5054804;28;20032;-72
2022/08/10 00:37:37;;;;;;;4.50;1.33;;;;;;;14.57;100.00;102900.66;5055420;28;20056;-72
2022/08/10 00:40:04;;;;;;;2.65;1.35;;;;;;;14.54;100.00;102898.22;5055148;28;20454;-72
2022/08/10 00:42:29;;;;;;;3.53;1.50;;;;;;;14.52;100.00;102901.97;5055209;28;20029;-72
2022/08/10 00:44:54;;;;;;;7.10;1.40;;;;;;;14.49;100.00;102903.03;5054145;28;20083;-72
2022/08/10 00:47:20;;;;;;;1.40;1.30;;;;;;;14.45;100.00;102894.41;5055708;28;20400;-72
2022/08/10 00:49:45;;;;;;;1.70;1.60;;;;;;;14.38;100.00;102901.16;5055299;28;20060;-72
2022/08/10 00:52:13;;;;;;;1.63;1.50;;;;;;;14.34;100.00;102904.19;5053408;28;20374;-72
2022/08/10 00:54:40;;;;;;;1.98;1.65;;;;;;;14.28;100.00;102903.66;5054163;28;20090;-72
2022/08/10 00:57:05;;;;;;;1.73;1.48;;;;;;;14.25;100.00;102900.38;5055195;28;20119;-72
2022/08/10 00:59:32;;;;;;;5.75;1.50;;;;;;;14.20;100.00;102906.06;5054944;28;20522;-72
2022/08/10 01:01:58;;;;;;;3.83;1.30;;;;;;;14.16;100.00;102903.72;5054953;28;20033;-72
2022/08/10 01:04:24;;;;;;;1.83;1.67;;;;;;;14.11;100.00;102904.91;5053544;28;20121;-72
2022/08/10 01:07:28;;;;;;;3.10;1.45;;;;;;;14.04;100.00;102898.28;5054800;28;20454;-72
2022/08/10 01:10:08;;;;;;;2.08;1.40;;;;;;;14.00;100.00;102903.97;4973775;28;20086;-72
2022/08/10 01:12:43;;;;;;;2.47;1.70;;;;;;;13.95;100.00;102892.75;4973706;28;20031;-72
2022/08/10 01:15:23;;;;;;;1.52;1.42;;;;;;;13.90;100.00;102899.31;5016345;28;20167;-72
2022/08/10 01:18:08;;;;;;;2.33;1.70;;;;;;;13.86;100.00;102896.97;5054559;28;20025;-72
2022/08/10 01:21:12;;;;;;;1.95;1.63;;;;;;;13.81;100.00;102891.94;5054053;28;20029;-72
2022/08/10 01:23:46;;;;;;;2.83;1.60;;;;;;;13.79;100.00;102888.50;5050916;28;20040;-72
2022/08/10 01:26:41;;;;;;;4.45;1.88;;;;;;;13.80;100.00;102889.38;5054488;28;20490;-72
2022/08/10 01:29:26;;;;;;;1.90;1.70;;;;;;;13.75;100.00;102889.72;5054780;28;20033;-72
2022/08/10 01:32:00;;;;;;;2.08;1.60;;;;;;;13.72;100.00;102892.59;5054612;28;20044;-72
2022/08/10 01:34:48;;;;;;;4.43;1.77;;;;;;;13.68;100.00;102889.28;5054449;28;20025;-72
2022/08/10 01:37:19;;;;;;;2.03;1.63;;;;;;;13.65;100.00;102892.19;5054534;28;20025;-72
2022/08/10 01:39:51;;;;;;;4.37;1.80;;;;;;;13.63;100.00;102895.91;5054277;28;20048;-72
2022/08/10 01:42:21;;;;;;;2.05;1.70;;;;;;;13.61;100.00;102889.84;5052716;28;20744;-72
2022/08/10 01:44:56;;;;;;;2.35;1.75;;;;;;;13.56;100.00;102884.81;5052858;28;20036;-72
2022/08/10 01:50:21;;;;;;;2.25;1.63;;;;;;;13.50;100.00;102885.25;5054147;28;20075;-72
2022/08/10 01:52:51;;;;;;;2.00;1.80;;;;;;;13.45;100.00;102884.69;5053826;28;20036;-72
2022/08/10 01:55:19;;;;;;;3.13;1.70;;;;;;;13.44;100.00;102883.84;5053371;28;20429;-72
2022/08/10 01:57:46;;;;;;;2.95;1.40;;;;;;;13.41;100.00;102881.41;5054120;28;20451;-72
2022/08/10 02:00:12;;;;;;;1.70;1.60;;;;;;;13.40;100.00;102877.88;5053796;28;20033;-72
2022/08/10 02:02:40;;;;;;;1.63;1.52;;;;;;;13.41;100.00;102886.75;5035868;28;20033;-72
2022/08/10 02:05:07;;;;;;;2.63;1.70;;;;;;;13.37;100.00;102880.75;5053325;28;20423;-72
2022/08/10 02:07:34;;;;;;;2.63;1.50;;;;;;;13.37;100.00;102879.91;5052921;28;20064;-72
2022/08/10 02:10:03;;;;;;;1.70;1.60;;;;;;;13.37;100.00;102879.91;5052513;28;20436;-72
2022/08/10 02:12:32;;;;;;;4.30;1.67;;;;;;;13.36;100.00;102876.38;5053356;28;20367;-72
2022/08/10 02:15:01;;;;;;;1.98;1.60;;;;;;;13.35;100.00;102879.16;5053568;28;20036;-72
2022/08/10 02:17:33;;;;;;;2.47;1.58;;;;;;;13.34;100.00;102883.63;5053781;28;20036;-71
2022/08/10 02:20:02;;;;;;;1.75;1.65;;;;;;;13.31;100.00;102878.47;5053719;28;20036;-72
2022/08/10 02:22:29;;;;;;;1.60;1.50;;;;;;;13.29;100.00;102883.09;5053913;28;20163;-73
2022/08/10 02:24:56;;;;;;;1.65;1.55;;;;;;;13.28;100.00;102878.69;5053316;28;20028;-72
2022/08/10 02:27:23;;;;;;;4.45;1.65;;;;;;;13.28;100.00;102883.19;5053629;28;20037;-72
2022/08/10 02:29:51;;;;;;;1.50;1.40;;;;;;;13.28;100.00;102877.84;5053013;28;20122;-72
2022/08/10 02:32:18;;;;;;;2.42;1.90;;;;;;;13.28;100.00;102880.53;5051927;28;20044;-82
2022/08/10 02:34:45;;;;;;;3.30;1.95;;;;;;;13.29;100.00;102882.25;5053125;28;20033;-81
2022/08/10 02:37:12;;;;;;;1.60;1.50;;;;;;;13.28;100.00;102889.38;5050298;28;20033;-82
2022/08/10 02:39:38;;;;;;;3.08;1.70;;;;;;;13.30;100.00;102886.59;5050016;28;20025;-82
2022/08/10 02:42:11;;;;;;;2.22;1.80;;;;;;;13.29;100.00;102882.25;5048707;28;20044;-81
2022/08/10 02:45:06;;;;;;;2.67;1.65;;;;;;;13.26;100.00;102869.09;5050739;28;20422;-82
2022/08/10 02:47:38;;;;;;;2.95;1.70;;;;;;;13.22;100.00;102868.44;5050786;28;20036;-79
2022/08/10 02:50:11;;;;;;;2.03;1.60;;;;;;;13.18;100.00;102873.16;5050739;28;20438;-82
2022/08/10 02:52:41;;;;;;;2.45;2.00;;;;;;;13.17;100.00;102870.59;5050310;28;20029;-81
2022/08/10 02:55:16;;;;;;;3.47;2.00;;;;;;;13.13;100.00;102867.25;5050498;28;20032;-81
2022/08/10 02:57:48;;;;;;;4.13;1.60;;;;;;;13.08;100.00;102858.72;5050549;28;20025;-83
2022/08/10 03:00:14;;;;;;;1.70;1.60;;;;;;;13.04;100.00;102858.03;5050462;28;20029;-83
2022/08/10 03:02:45;;;;;;;2.45;1.67;;;;;;;13.01;100.00;102860.09;5049049;28;20087;-82
2022/08/10 03:05:13;;;;;;;1.85;1.75;;;;;;;12.96;100.00;102855.06;5050596;28;20029;-81
2022/08/10 03:07:45;;;;;;;4.05;2.40;;;;;;;12.92;100.00;102853.56;5050546;28;20059;-81
2022/08/10 03:10:16;;;;;;;1.80;1.70;;;;;;;12.88;100.00;102852.03;5050805;28;20028;-82
2022/08/10 03:12:42;;;;;;;;;;;;;;;12.84;100.00;102854.09;5051828;28;20095;-80
2022/08/10 03:15:10;;;;;;;2.53;2.13;;;;;;;12.80;100.00;102851.72;5051575;28;20316;-81
2022/08/10 03:17:36;;;;;;;2.30;2.10;;;;;;;12.75;100.00;102854.72;5051872;28;20031;-78
2022/08/10 03:20:02;;;;;;;2.88;2.30;;;;;;;12.75;100.00;102852.06;5053243;28;20106;-81
2022/08/10 03:22:28;;;;;;;3.63;2.13;;;;;;;12.74;100.00;102849.47;5051020;28;20471;-80
2022/08/10 03:24:54;;;;;;;3.80;2.03;;;;;;;12.70;100.00;102849.69;5050837;28;20431;-81
2022/08/10 03:27:22;;;;;;;2.35;2.15;;;;;;;12.71;100.00;102842.53;5049899;28;20097;-81
2022/08/10 03:29:48;;;;;;;2.58;2.10;;;;;;;12.69;100.00;102850.63;5052969;28;20078;-81
2022/08/10 03:32:14;;;;;;;2.53;2.33;;;;;;;12.66;100.00;102845.50;5053635;28;20434;-82
2022/08/10 03:34:41;;;;;;;3.05;2.10;;;;;;;12.66;100.00;102850.00;5050598;28;20033;-80
2022/08/10 03:37:06;;;;;;;3.40;2.20;;;;;;;12.63;100.00;102845.72;5049940;28;20033;-80
2022/08/10 03:39:32;;;;;;;3.05;2.20;;;;;;;12.62;100.00;102848.50;5050102;28;20044;-82
2022/08/10 03:42:02;;;;;;;3.05;2.03;;;;;;;12.60;100.00;102842.38;5050406;28;20434;-80
2022/08/10 03:44:30;;;;;;;2.25;2.05;;;;;;;12.59;100.00;102851.38;5053407;28;20036;-82
2022/08/10 03:46:59;;;;;;;2.50;2.03;;;;;;;12.56;100.00;102849.75;5055337;28;20047;-81
2022/08/10 03:49:26;;;;;;;2.42;2.22;;;;;;;12.53;100.00;102850.81;5055904;28;20036;-81
2022/08/10 03:51:53;;;;;;;3.20;2.40;;;;;;;12.51;100.00;102847.41;5056424;28;20090;-80
2022/08/10 03:54:19;;;;;;;3.80;2.80;;;;;;;12.61;100.00;102842.28;5036302;28;20029;-83
2022/08/10 03:56:46;;;;;;;2.80;2.60;;;;;;;12.58;100.00;102841.66;5053954;28;20036;-81
2022/08/10 03:59:14;;;;;;;3.03;2.50;;;;;;;12.59;100.00;102841.53;5052043;28;20037;-83
2022/08/10 04:01:44;;;;;;;3.58;2.72;;;;;;;12.57;100.00;102843.47;5053820;28;20131;-82
2022/08/10 04:04:10;;;;;;;3.22;2.80;;;;;;;12.57;100.00;102846.13;5053322;28;20179;-81
2022/08/10 04:06:36;;;;;;;3.20;2.70;;;;;;;12.54;100.00;102843.69;5053980;28;20036;-82
2022/08/10 04:09:02;;;;;;;3.42;3.13;;;;;;;12.55;100.00;102852.53;5053480;28;20037;-82
2022/08/10 04:11:27;;;;;;;4.70;2.97;;;;;;;12.52;100.00;102853.59;5053915;28;20346;-82
2022/08/10 04:13:52;;;;;;;5.32;3.00;;;;;;;12.53;100.00;102852.63;5053572;28;20474;-82
2022/08/10 04:16:18;;;;;;;3.28;2.83;;;;;;;12.50;100.00;102847.50;5053397;28;20095;-81
2022/08/10 04:18:43;;;;;;;4.18;2.78;;;;;;;12.49;100.00;102851.97;5053739;28;20423;-82
2022/08/10 04:21:13;;;;;;;4.40;3.10;;;;;;;12.48;100.00;102852.06;5053709;28;20085;-82
2022/08/10 04:23:43;;;;;;;3.95;3.05;;;;;;;12.47;100.00;102847.72;5053462;28;20020;-82
2022/08/10 04:26:10;;;;;;;4.75;3.03;;;;;;;12.47;100.00;102853.06;5051829;28;20040;-82
2022/08/10 04:28:35;;;;;;;4.43;3.33;;;;;;;12.45;100.00;102844.28;5053499;28;20033;-82
2022/08/10 04:31:05;;;;;;;3.50;3.15;;;;;;;12.44;100.00;102846.09;5053087;28;20047;-81
2022/08/10 04:33:32;;;;;;;3.97;3.58;;;;;;;12.45;100.00;102838.94;5052878;28;20033;-81
2022/08/10 04:35:59;;;;;;;7.20;3.80;;;;;;;12.46;100.00;102844.16;5051321;28;20029;-81
2022/08/10 04:38:26;;;;;;;5.63;3.67;;;;;;;12.49;100.00;102845.78;5053106;28;20025;-81
2022/08/10 04:40:52;;;;;;;4.00;3.20;;;;;;;12.50;100.00;102842.16;5053041;28;20163;-82
2022/08/10 04:43:17;;;;;;;3.00;2.72;;;;;;;12.48;100.00;102842.28;5053122;28;20062;-82
2022/08/10 04:45:44;;;;;;;4.28;3.53;;;;;;;12.50;100.00;102842.16;5053046;28;20041;-82
2022/08/10 04:48:09;;;;;;;5.13;3.25;;;;;;;12.53;100.00;102849.97;5053132;28;20039;-81
2022/08/10 04:50:35;;;;;;;4.70;3.40;;;;;;;12.57;100.00;102848.81;5052643;28;20378;-81
2022/08/10 04:53:00;;;;;;;4.22;3.35;;;;;;;12.59;100.00;102843.38;5051514;28;20040;-81
2022/08/10 04:55:26;;;;;;;3.33;2.90;;;;;;;12.60;100.00;102843.25;5051689;28;20128;-81
2022/08/10 04:57:51;;;;;;;4.30;2.95;;;;;;;12.62;100.00;102852.00;5052665;28;20115;-82
2022/08/10 05:00:17;;;;;;;4.10;3.40;;;;;;;12.64;100.00;102846.56;5053063;28;20033;-86
2022/08/10 05:02:42;;;;;;;5.03;3.67;;;;;;;12.69;100.00;102849.81;5053750;28;20025;-87
2022/08/10 05:05:08;;;;;;;5.88;3.70;;;;;;;12.72;100.00;102846.03;5052410;28;20359;-85
2022/08/10 05:07:33;;;;;;;6.75;4.45;;;;;;;12.79;100.00;102847.34;5052901;28;20036;-80
2022/08/10 05:09:59;;;;;;;5.22;3.88;;;;;;;12.85;100.00;102849.59;5052580;28;20398;-79
2022/08/10 05:12:25;;;;;;;5.60;4.35;;;;;;;12.95;100.00;102849.81;5052530;28;20075;-81
2022/08/10 05:14:51;;;;;;;6.22;4.50;;;;;;;13.03;100.00;102852.81;5052539;28;20037;-80
2022/08/10 05:17:17;;;;;;;11.85;4.57;;;;;;;13.09;100.00;102847.03;5052683;28;20055;-80
2022/08/10 05:19:42;;;;;;;6.57;4.68;;;;;;;13.22;100.00;102842.53;5052017;28;20033;-82
2022/08/10 05:22:08;;;;;;;8.15;4.93;;;;;;;13.34;100.00;102842.69;5052375;28;20025;-80
2022/08/10 05:24:33;;;;;;;6.95;5.07;;;;;;;13.47;100.00;102848.03;5051420;28;20029;-78
2022/08/10 05:26:58;;;;;;;9.20;4.65;;;;;;;13.56;100.00;102847.38;5050753;28;20056;-78
2022/08/10 05:29:24;;;;;;;6.25;4.40;;;;;;;13.66;100.00;102844.88;5051538;28;20195;-82
2022/08/10 05:31:50;;;;;;;8.13;4.82;;;;;;;13.74;100.00;102847.88;5052211;28;20044;-80
2022/08/10 05:34:16;;;;;;;5.60;4.35;;;;;;;13.83;100.00;102846.34;5051988;28;20486;-81
2022/08/10 05:36:42;;;;;;;7.75;4.70;;;;;;;13.92;100.00;102851.88;5051207;28;20048;-82
2022/08/10 05:39:09;;;;;;;6.95;4.60;;;;;;;14.01;100.00;102844.97;5051631;28;20041;-82
2022/08/10 05:41:36;;;;;;;4.90;4.32;;;;;;;14.09;100.00;102847.09;5051093;28;20163;-79
2022/08/10 05:44:01;;;;;;;5.28;4.00;;;;;;;14.14;100.00;102849.44;5051320;28;20079;-80
2022/08/10 05:46:27;;;;;;;6.80;5.10;;;;;;;14.19;100.00;102848.13;5051676;28;20438;-81
2022/08/10 05:48:52;;;;;;;7.70;5.53;;;;;;;14.27;100.00;102850.22;5050237;28;20047;-83
2022/08/10 05:51:18;;;;;;;8.93;5.60;;;;;;;14.37;100.00;102855.75;5051282;28;20044;-75
2022/08/10 05:53:44;;;;;;;7.22;5.15;;;;;;;14.46;100.00;102855.94;5049731;28;20151;-75
2022/08/10 05:56:11;;;;;;;5.45;4.70;;;;;;;14.59;100.00;102850.50;5051069;28;20386;-74
2022/08/10 05:58:37;;;;;;;9.65;5.22;;;;;;;14.68;100.00;102846.28;5051088;28;20119;-73
2022/08/10 06:01:12;;;;;;;9.52;5.13;;;;;;;14.79;100.00;102846.34;5050882;28;20435;-80
2022/08/10 06:03:46;;;;;;;6.60;5.30;;;;;;;14.88;100.00;102844.75;5050922;28;20454;-77
2022/08/10 06:06:15;;;;;;;6.55;4.57;;;;;;;14.99;100.00;102846.63;5051611;28;20045;-84
2022/08/10 06:08:43;;;;;;;8.80;5.05;;;;;;;15.11;100.00;102847.50;5051006;28;20029;-78
2022/08/10 06:11:10;;;;;;;7.30;4.75;;;;;;;15.22;100.00;102846.63;5051140;28;20048;-75
2022/08/10 06:16:22;;;;;;;6.63;4.78;;;;;;;15.49;100.00;102848.94;5051411;28;20044;-73
2022/08/10 06:18:49;;;;;;;6.47;4.60;;;;;;;15.60;100.00;102851.63;5051276;28;20028;-76
2022/08/10 06:21:16;;;;;;;7.10;4.85;;;;;;;15.71;100.00;102853.44;5050973;28;20115;-74
2022/08/10 06:23:42;;;;;;;8.45;4.70;;;;;;;15.86;100.00;102852.22;5051278;28;20028;-72
2022/08/10 06:26:07;;;;;;;8.98;4.78;;;;;;;15.99;100.00;102844.03;5049380;28;20029;-73
2022/08/10 06:28:38;;;;;;;6.75;4.80;;;;;;;16.09;100.00;102846.78;5050775;28;20087;-75
2022/08/10 06:31:05;;;;;;;6.15;4.82;;;;;;;16.19;100.00;102847.75;5050777;28;20028;-74
2022/08/10 06:33:33;;;;;;;6.68;4.97;;;;;;;16.34;100.00;102842.09;5050685;28;20029;-75
2022/08/10 06:36:00;;;;;;;11.27;5.00;;;;;;;16.46;100.00;102848.28;5050600;28;20167;-73
2022/08/10 06:38:30;;;;;;;6.20;4.82;;;;;;;16.54;100.00;102843.09;5050869;28;20041;-76
2022/08/10 06:40:59;;;;;;;6.70;4.70;;;;;;;16.65;100.00;102851.09;5053043;28;20061;-78
2022/08/10 06:43:26;;;;;;;8.35;4.57;;;;;;;16.77;100.00;102851.06;5054821;28;20130;-78
2022/08/10 06:46:02;;;;;;;6.22;4.60;;;;;;;16.87;100.00;102855.53;5050701;28;20426;-77
2022/08/10 06:48:48;;;;;;;5.75;4.10;;;;;;;16.96;100.00;102853.03;5050137;28;20047;-76
2022/08/10 06:51:20;;;;;;;8.73;4.85;;;;;;;17.01;99.80;102843.56;5050366;28;20029;-76
2022/08/10 06:53:48;;;;;;;7.78;4.47;;;;;;;17.12;99.67;102857.94;5050284;28;20510;-76
2022/08/10 06:56:17;;;;;;;8.20;5.13;;;;;;;17.23;99.29;102857.88;5048562;28;20029;-76
2022/08/10 06:58:56;;;;;;;9.60;4.32;;;;;;;17.36;99.23;102857.63;5050313;28;20037;-78
2022/08/10 07:01:27;;;;;;;6.88;5.00;;;;;;;17.45;98.02;102859.50;5050225;28;20101;-80
2022/08/10 07:04:04;;;;;;;8.70;4.80;;;;;;;17.50;97.60;102861.81;5048556;28;20024;-80
2022/08/10 07:06:30;;;;;;;7.38;5.18;;;;;;;17.53;96.50;102859.69;5050419;28;20029;-78
2022/08/10 07:08:58;;;;;;;6.45;4.93;;;;;;;17.59;96.63;102852.91;5050205;28;20087;-81
2022/08/10 07:11:25;;;;;;;7.43;4.65;;;;;;;17.66;96.74;102855.88;5050487;28;20033;-79
2022/08/10 07:13:53;;;;;;;5.28;4.53;;;;;;;17.72;96.71;102852.66;5049518;28;20421;-77
2022/08/10 07:16:20;;;;;;;12.85;4.53;;;;;;;17.74;95.65;102854.22;5049951;28;20124;-76
2022/08/10 07:18:47;;;;;;;5.82;4.35;;;;;;;17.83;96.20;102849.00;5053223;28;20051;-79
2022/08/10 07:21:16;;;;;;;5.82;4.70;;;;;;;17.86;95.60;102846.88;5056758;28;20032;-80
2022/08/10 07:23:45;;;;;;;6.20;4.45;;;;;;;17.96;96.42;102846.94;5056901;28;20036;-79
2022/08/10 07:26:12;;;;;;;9.77;4.85;;;;;;;18.06;95.73;102850.47;5056980;28;20029;-79
2022/08/10 07:28:38;;;;;;;12.98;5.03;;;;;;;18.20;95.03;102846.53;5055173;28;20044;-80
2022/08/10 07:31:05;;;;;;;7.80;4.75;;;;;;;18.35;92.58;102846.97;5056805;28;20049;-79
2022/08/10 07:33:33;;;;;;;7.32;4.70;;;;;;;18.49;92.39;102851.06;5056918;28;20366;-79
2022/08/10 07:36:00;;;;;;;8.68;4.38;;;;;;;18.61;90.89;102855.31;5056951;28;20029;-80
2022/08/10 07:38:28;;;;;;;5.82;4.10;;;;;;;18.78;90.50;102856.44;5056818;28;20035;-83
2022/08/10 07:40:57;;;;;;;7.25;4.30;;;;;;;18.96;88.43;102848.50;5056776;28;20059;-80
2022/08/10 07:43:25;;;;;;;7.82;4.53;;;;;;;19.12;87.63;102853.28;5057132;28;20029;-80
2022/08/10 07:45:52;;;;;;;9.63;4.65;;;;;;;19.28;86.96;102851.81;5056984;28;20033;-79
2022/08/10 07:48:28;;;;;;;8.18;4.43;;;;;;;19.42;86.52;102855.84;5057190;28;20041;-80
2022/08/10 07:50:58;;;;;;;5.10;4.00;;;;;;;19.60;84.16;102864.00;5057259;28;20203;-80
2022/08/10 07:53:26;;;;;;;6.78;4.97;;;;;;;19.71;81.71;102861.13;5056717;28;20029;-79
2022/08/10 07:55:54;;;;;;;8.68;4.30;;;;;;;19.85;82.71;102859.78;5056942;28;20132;-80
2022/08/10 07:58:24;;;;;;;5.78;3.83;;;;;;;20.07;82.65;102855.81;5057213;28;20107;-80
2022/08/10 08:00:52;;;;;;;7.45;3.90;;;;;;;20.32;79.18;102856.03;5056771;28;20386;-80
2022/08/10 08:03:24;;;;;;;4.60;3.50;;;;;;;20.51;77.11;102864.00;5057150;28;20024;-79
2022/08/10 08:05:50;;;;;;;8.00;3.60;;;;;;;20.65;76.13;102864.44;5057358;28;20056;-80
2022/08/10 08:08:18;;;;;;;10.00;3.70;;;;;;;20.82;76.00;102860.88;5056860;28;20100;-80
2022/08/10 08:10:45;;;;;;;4.65;3.33;;;;;;;21.00;76.08;102866.22;5057300;28;20041;-80
2022/08/10 08:13:12;;;;;;;4.47;3.40;;;;;;;21.24;75.33;102865.53;5056761;28;20028;-77
2022/08/10 08:15:39;;;;;;;7.57;3.35;;;;;;;21.61;75.05;102860.81;5055439;28;20061;-79
2022/08/10 08:18:07;;;;;;;4.45;2.95;;;;;;;22.00;73.48;102862.97;5059527;28;20434;-83
2022/08/10 08:20:33;;;;;;;5.40;3.10;;;;;;;22.26;70.49;102860.13;5057239;28;20063;-79
2022/08/10 08:22:59;;;;;;;3.53;2.65;;;;;;;22.53;68.33;102860.84;5056572;28;20068;-79
2022/08/10 08:25:24;;;;;;;4.15;2.30;;;;;;;22.76;68.47;102861.00;5056082;28;20083;-78
2022/08/10 08:27:54;;;;;;;6.47;2.63;;;;;;;23.06;65.12;102858.56;5054965;28;20033;-78
2022/08/10 08:30:22;;;;;;;4.35;2.70;;;;;;;23.31;63.52;102866.69;5054015;28;20029;-80
2022/08/10 08:32:47;;;;;;;6.63;2.50;;;;;;;23.84;62.77;102862.38;5053520;28;20033;-81
2022/08/10 08:35:17;;;;;;;3.85;2.00;;;;;;;24.08;60.22;102857.81;5053381;28;20041;-84
2022/08/10 08:37:45;;;;;;;5.20;2.30;;;;;;;24.67;60.03;102854.47;5051982;28;20373;-83
2022/08/10 08:40:15;;;;;;;5.00;2.50;;;;;;;24.90;56.03;102846.28;5054601;28;20033;-84
2022/08/10 08:42:43;;;;;;;5.78;1.77;;;;;;;25.45;53.98;102849.59;5052881;28;20033;-85
2022/08/10 08:45:35;;;;;;;5.22;2.15;;;;;;;25.63;52.76;102843.72;5053069;28;20056;-86
2022/08/10 08:48:18;;;;;;;5.82;2.47;;;;;;;25.79;50.77;102839.91;5053047;28;20386;-84
2022/08/10 08:51:25;;;;;;;3.17;1.75;;;;;;;25.96;52.21;102847.84;5051445;28;20115;-85
2022/08/10 08:54:18;;;;;;;6.40;1.88;;;;;;;26.13;52.04;102843.84;4971778;28;20085;-86
2022/08/10 08:57:11;;;;;;;5.95;1.77;;;;;;;26.27;48.95;102843.97;4971399;28;20056;-86
2022/08/10 08:59:59;;;;;;;5.15;1.70;;;;;;;26.38;48.48;102844.28;5041406;28;20083;-85
2022/08/10 09:02:53;;;;;;;2.42;1.60;;;;;;;26.49;47.52;102837.44;5055059;28;20029;-86
2022/08/10 09:05:27;;;;;;;9.30;1.60;;;;;;;27.04;49.58;102834.91;5052882;28;20060;-86
2022/08/10 09:08:21;;;;;;;6.28;1.52;;;;;;;27.61;48.60;102840.25;5053206;28;20101;-85
2022/08/10 09:10:58;;;;;;;5.25;1.50;;;;;;;28.49;44.58;102825.66;5053010;28;20135;-85
2022/08/10 09:13:30;;;;;;;3.38;1.75;;;;;;;29.02;42.46;102822.00;5052481;28;20115;-85
2022/08/10 09:16:19;;;;;;;3.58;1.40;;;;;;;29.71;39.54;102812.25;5052578;28;20036;-84
2022/08/10 09:19:26;;;;;;;5.28;1.42;;;;;;;30.77;38.60;102817.13;5052786;28;20407;-85
2022/08/10 09:22:31;;;;;;;6.22;1.95;;;;;;;32.16;36.74;102812.78;5052824;28;20033;-86
2022/08/10 09:25:08;;;;;;;3.47;1.60;;;;;;;32.43;32.69;102807.66;5051964;28;20503;-86
2022/08/10 09:28:07;;;;;;;7.28;1.67;;;;;;;33.28;31.59;102808.16;5053514;28;20151;-89
2022/08/10 09:30:51;;;;;;;5.10;1.40;;;;;;;33.62;30.36;102799.09;5036801;28;20074;-87
2022/08/10 09:33:33;;;;;;;5.72;1.35;;;;;;;34.17;30.36;102790.13;5052074;28;20071;-88
2022/08/10 09:36:03;;;;;;;2.95;1.60;;;;;;;34.15;30.07;102788.72;5052346;28;20057;-85
2022/08/10 09:38:47;;;;;;;2.72;1.38;;;;;;;34.50;30.85;102777.41;5052259;28;20099;-85
2022/08/10 09:41:39;;;;;;;2.33;1.20;;;;;;;34.58;28.84;102785.25;5052129;28;20060;-85
2022/08/10 09:44:26;;;;;;;6.68;2.17;;;;;;;34.76;28.56;102778.56;5052516;28;20054;-81
2022/08/10 09:47:12;;;;;;;5.13;1.40;;;;;;;34.87;28.85;102773.19;5050747;28;20037;-81
2022/08/10 09:49:56;;;;;;;1.52;1.05;;;;;;;34.36;28.90;102768.63;5050320;28;20162;-82
2022/08/10 09:52:31;;;;;;;7.50;1.50;;;;;;;35.13;28.02;102768.81;5052015;28;20470;-81
2022/08/10 09:55:22;;;;;;;3.58;1.50;;;;;;;35.12;28.81;102764.38;5050740;28;20090;-82
2022/08/10 09:58:27;;;;;;;6.50;1.23;;;;;;;35.03;28.14;102766.75;5014464;28;20045;-81
2022/08/10 10:01:23;;;;;;;5.85;1.58;;;;;;;35.58;26.11;102762.09;5051705;28;20120;-81
2022/08/10 10:04:13;;;;;;;3.15;1.35;;;;;;;35.87;26.08;102758.22;5051591;28;20087;-81
2022/08/10 10:07:07;;;;;;;4.95;1.40;;;;;;;34.88;25.93;102759.13;5051713;28;20021;-86
2022/08/10 10:09:37;;;;;;;3.15;1.13;;;;;;;35.05;25.46;102755.44;5050119;28;20451;-83
2022/08/10 10:12:13;;;;;;;3.58;1.33;;;;;;;35.07;26.56;102751.31;5051486;28;20079;-83
2022/08/10 10:15:19;;;;;;;6.32;1.38;;;;;;;35.61;27.37;102757.97;5052595;28;20112;-80
2022/08/10 10:17:52;;;;;;;9.98;1.50;;;;;;;35.36;26.78;102753.03;5053300;28;20055;-83
2022/08/10 10:20:24;;;;;;;3.67;1.27;;;;;;;35.12;24.63;102745.84;5052396;28;20028;-81
2022/08/10 10:22:53;;;;;;;2.47;1.10;;;;;;;35.96;27.08;102751.06;5050609;28;20037;-82
2022/08/10 10:25:32;;;;;;;4.03;1.63;;;;;;;35.81;25.94;102741.53;5051044;28;20025;-80
2022/08/10 10:28:06;;;;;;;3.75;1.20;;;;;;;36.10;25.50;102743.97;5050547;28;20029;-83
2022/08/10 10:30:40;;;;;;;2.80;1.25;;;;;;;36.39;24.48;102735.31;5050003;28;20033;-80
2022/08/10 10:33:15;;;;;;;6.10;1.50;;;;;;;36.25;25.19;102734.06;5052337;28;20040;-81
2022/08/10 10:36:08;;;;;;;4.85;1.20;;;;;;;36.67;24.76;102730.44;5051702;28;20108;-80
2022/08/10 10:38:38;;;;;;;2.65;1.35;;;;;;;36.77;23.80;102736.06;5049398;28;20037;-81
2022/08/10 10:41:18;;;;;;;1.23;1.10;;;;;;;37.14;23.80;102728.66;5053149;28;20078;-80
2022/08/10 10:44:32;;;;;;;5.20;1.60;;;;;;;37.16;23.53;102734.75;5051275;28;20447;-82
2022/08/10 10:47:28;;;;;;;2.60;1.20;;;;;;;36.92;23.33;102729.72;5033504;28;20041;-81
2022/08/10 10:50:13;;;;;;;4.25;1.13;;;;;;;36.25;22.75;102725.75;5049345;28;20062;-81
2022/08/10 10:52:55;;;;;;;4.57;1.40;;;;;;;36.20;23.16;102734.88;5050530;28;20036;-82
2022/08/10 10:55:44;;;;;;;2.25;1.52;;;;;;;35.39;24.14;102730.38;5051125;28;20025;-85
2022/08/10 10:58:13;;;;;;;5.00;1.25;;;;;;;35.76;24.89;102715.75;5049022;28;20470;-81
2022/08/10 11:00:49;;;;;;;2.75;1.45;;;;;;;35.98;25.02;102723.94;5050889;28;20415;-82
2022/08/10 11:03:33;;;;;;;2.97;1.20;;;;;;;36.66;23.50;102724.06;5050962;28;20033;-82
2022/08/10 11:06:17;;;;;;;4.10;1.50;;;;;;;36.36;22.72;102713.69;5050711;28;20124;-81
2022/08/10 11:08:51;;;;;;;6.35;1.52;;;;;;;36.82;24.02;102711.13;5049204;28;20111;-81
2022/08/10 11:11:21;;;;;;;6.30;1.52;;;;;;;37.28;22.48;102709.56;5050188;28;20079;-83
2022/08/10 11:14:01;;;;;;;;;;;;;;;36.65;21.61;102705.78;5049325;28;20142;-80
2022/08/10 11:16:47;;;;;;;4.77;1.20;;;;;;;36.71;21.47;102693.59;5050976;28;19953;-79
2022/08/10 11:19:29;;;;;;;1.88;1.20;;;;;;;37.16;22.77;102702.31;5050450;28;20345;-80
2022/08/10 11:22:00;;;;;;;5.15;1.30;;;;;;;37.32;21.45;102705.13;5050790;28;20033;-82
2022/08/10 11:25:00;;;;;;;2.15;1.20;;;;;;;37.25;21.21;102704.56;5051084;28;20035;-77
2022/08/10 11:28:11;;;;;;;5.30;1.52;;;;;;;36.36;22.10;102706.19;5049138;28;20123;-80
2022/08/10 11:31:21;;;;;;;5.32;1.20;;;;;;;36.47;20.68;102695.16;5003666;28;20033;-81
2022/08/10 11:33:55;;;;;;;2.83;1.20;;;;;;;36.61;21.54;102701.03;5048107;28;20045;-82
2022/08/10 11:36:45;;;;;;;4.22;1.33;;;;;;;36.83;21.60;102693.38;5051346;28;20029;-81
2022/08/10 11:39:26;;;;;;;4.05;1.20;;;;;;;37.02;20.93;102693.66;5051415;28;20100;-82
2022/08/10 11:41:55;;;;;;;1.35;1.20;;;;;;;37.22;22.20;102695.66;5050006;28;20144;-80
2022/08/10 11:45:01;;;;;;;2.23;1.20;;;;;;;36.87;20.21;102693.66;5048376;28;20054;-80
2022/08/10 11:47:51;;;;;;;2.35;1.05;;;;;;;37.63;20.69;102682.91;5034717;28;20094;-79
2022/08/10 11:50:27;;;;;;;3.05;1.30;;;;;;;37.31;21.06;102679.31;5049042;28;20032;-81
2022/08/10 11:53:20;;;;;;;4.50;1.23;;;;;;;36.82;21.96;102674.25;5051111;28;20396;-79